Time;durP1;ratioP1;P1;durP2;ratioP2;P2;SDS_P1;SDS_P2;PMS_P1;PMS_P2;Temp;Humidity;BMP_temperature;BMP_pressure;BME280_temperature;BME280_humidity;BME280_pressure;Samples;Min_cycle;Max_cycle;Signal;HPM_P1;HPM_P2
2022/10/01 00:01:00;;;;;;;8.80;7.50;;;;;;;11.10;95.40;100253.13;5049121;28;20356;-67
2022/10/01 00:03:27;;;;;;;10.00;7.00;;;;;;;11.08;95.47;100234.16;5046832;28;20078;-67
2022/10/01 00:06:02;;;;;;;9.80;7.97;;;;;;;11.07;96.68;100232.50;5047306;28;20025;-67
2022/10/01 00:08:29;;;;;;;10.60;8.40;;;;;;;10.99;97.82;100229.31;5044425;28;20049;-66
2022/10/01 00:10:55;;;;;;;10.13;8.07;;;;;;;11.00;96.76;100214.47;5029373;28;20053;-67
2022/10/01 00:13:21;;;;;;;9.77;7.35;;;;;;;11.05;95.94;100206.31;5031052;28;20034;-67
2022/10/01 00:15:47;;;;;;;10.15;7.13;;;;;;;11.04;96.79;100208.25;5039317;28;20112;-67
2022/10/01 00:18:12;;;;;;;11.60;6.78;;;;;;;11.13;95.86;100203.16;5047415;28;20163;-67
2022/10/01 00:20:42;;;;;;;10.35;7.05;;;;;;;11.05;96.93;100187.09;5046995;28;20102;-67
2022/10/01 00:23:08;;;;;;;9.98;7.30;;;;;;;11.02;96.54;100191.19;5046828;28;20090;-66
2022/10/01 00:25:34;;;;;;;10.18;6.70;;;;;;;11.07;96.76;100182.19;5047512;28;20475;-67
2022/10/01 00:27:59;;;;;;;10.93;7.82;;;;;;;11.01;97.16;100192.28;5039402;28;20032;-67
2022/10/01 00:30:25;;;;;;;11.07;7.75;;;;;;;11.02;96.94;100198.59;5048259;28;20495;-66
2022/10/01 00:32:53;;;;;;;10.50;6.95;;;;;;;10.99;97.22;100180.69;5047630;28;20040;-67
2022/10/01 00:35:18;;;;;;;10.00;6.80;;;;;;;11.03;97.35;100159.88;5027608;28;20041;-68
2022/10/01 00:37:46;;;;;;;9.63;6.97;;;;;;;11.03;97.45;100157.13;5036149;28;20079;-67
2022/10/01 00:40:11;;;;;;;11.65;7.70;;;;;;;11.05;97.16;100156.84;5041177;28;20552;-67
2022/10/01 00:42:37;;;;;;;11.63;7.28;;;;;;;11.04;97.08;100180.75;5036237;28;20116;-67
2022/10/01 00:45:03;;;;;;;10.75;8.07;;;;;;;11.02;97.70;100168.38;5047503;28;20025;-67
2022/10/01 00:47:38;;;;;;;8.70;6.53;;;;;;;11.05;97.37;100167.84;5048402;28;20083;-67
2022/10/01 00:50:10;;;;;;;10.00;7.13;;;;;;;11.04;97.91;100171.69;5047158;28;20043;-67
2022/10/01 00:52:39;;;;;;;9.60;7.38;;;;;;;11.02;98.10;100158.22;5047441;28;20029;-67
2022/10/01 00:55:14;;;;;;;11.73;7.88;;;;;;;11.04;98.61;100161.53;5043247;28;20075;-66
2022/10/01 00:57:40;;;;;;;10.43;7.63;;;;;;;11.02;97.51;100141.72;5046361;28;20039;-67
2022/10/01 01:00:08;;;;;;;9.32;6.30;;;;;;;11.11;97.34;100162.19;5043446;28;20044;-66
2022/10/01 01:02:34;;;;;;;9.50;6.28;;;;;;;11.03;97.83;100156.28;5030026;28;20056;-67
2022/10/01 01:05:00;;;;;;;9.88;7.03;;;;;;;10.96;98.78;100163.88;5035892;28;20029;-67
2022/10/01 01:07:28;;;;;;;10.85;7.47;;;;;;;10.90;99.81;100161.06;5047306;28;20033;-67
2022/10/01 01:09:54;;;;;;;9.10;6.85;;;;;;;10.86;100.00;100148.06;5046984;28;20426;-67
2022/10/01 01:12:51;;;;;;;10.38;7.30;;;;;;;10.91;100.00;100154.47;5089748;22;20500;-65
2022/10/01 01:15:25;;;;;;;9.13;6.80;;;;;;;10.83;100.00;100135.63;5017727;28;20057;-64
2022/10/01 01:17:59;;;;;;;9.90;7.13;;;;;;;10.71;100.00;100096.44;5025420;28;20029;-64
2022/10/01 01:20:48;;;;;;;9.63;7.03;;;;;;;10.82;100.00;100053.50;5026640;28;20089;-64
2022/10/01 01:23:13;;;;;;;10.13;6.68;;;;;;;10.65;100.00;100048.84;5027386;28;20056;-64
2022/10/01 01:25:59;;;;;;;8.77;6.57;;;;;;;10.79;100.00;100032.00;5023016;28;20041;-65
2022/10/01 01:28:43;;;;;;;9.27;6.10;;;;;;;10.65;100.00;100032.38;5014250;28;20112;-65
2022/10/01 01:31:41;;;;;;;7.53;5.30;;;;;;;10.68;100.00;100063.16;5019974;28;20095;-64
2022/10/01 01:34:12;;;;;;;9.48;6.60;;;;;;;10.62;100.00;100048.53;5026155;28;20099;-65
2022/10/01 01:36:44;;;;;;;8.38;5.97;;;;;;;10.65;100.00;100070.00;5026306;28;20032;-64
2022/10/01 01:39:13;;;;;;;8.02;5.60;;;;;;;10.67;100.00;100054.09;5025716;28;20121;-64
2022/10/01 01:41:48;;;;;;;6.70;4.90;;;;;;;10.76;100.00;100066.31;5024494;28;20022;-64
2022/10/01 01:44:17;;;;;;;7.25;4.90;;;;;;;10.72;100.00;100092.63;5011818;28;20092;-65
2022/10/01 01:46:46;;;;;;;6.75;4.78;;;;;;;10.74;100.00;100076.72;5009193;28;20045;-65
2022/10/01 01:49:13;;;;;;;7.47;4.75;;;;;;;10.77;100.00;100073.47;5026235;28;20452;-65
2022/10/01 01:52:04;;;;;;;7.43;4.80;;;;;;;10.80;100.00;100053.75;5026140;28;20890;-64
2022/10/01 01:54:30;;;;;;;7.47;4.90;;;;;;;10.78;100.00;100042.16;5019070;28;20125;-65
2022/10/01 01:56:57;;;;;;;7.07;4.22;;;;;;;10.78;100.00;100060.56;5007343;28;20106;-64
2022/10/01 01:59:24;;;;;;;6.00;4.60;;;;;;;10.79;100.00;100052.06;5014209;28;20036;-65
2022/10/01 02:01:50;;;;;;;7.32;4.43;;;;;;;10.76;100.00;100044.34;5024155;28;20096;-65
2022/10/01 02:04:24;;;;;;;6.43;4.70;;;;;;;10.89;100.00;100037.66;5026443;28;20135;-65
2022/10/01 02:07:27;;;;;;;6.88;4.40;;;;;;;10.83;100.00;100055.97;5016820;28;20045;-65
2022/10/01 02:10:07;;;;;;;7.05;4.53;;;;;;;10.84;100.00;100046.66;5018241;28;20352;-64
2022/10/01 02:13:02;;;;;;;6.57;3.97;;;;;;;10.89;100.00;100037.66;5025988;28;20625;-64
2022/10/01 02:15:58;;;;;;;6.55;4.20;;;;;;;10.81;100.00;100033.44;5026853;28;20167;-65
2022/10/01 02:18:42;;;;;;;6.00;3.88;;;;;;;10.64;100.00;100041.72;5026051;28;20029;-64
2022/10/01 02:21:22;;;;;;;5.72;3.95;;;;;;;10.60;100.00;100017.75;5024828;28;20029;-64
2022/10/01 02:23:57;;;;;;;5.15;3.50;;;;;;;10.62;100.00;100008.16;5024897;28;20037;-64
2022/10/01 02:26:25;;;;;;;5.25;3.45;;;;;;;10.65;100.00;100009.59;5007036;28;20033;-64
2022/10/01 02:28:54;;;;;;;6.10;3.42;;;;;;;10.65;100.00;100004.09;5020480;28;20124;-65
2022/10/01 02:31:21;;;;;;;6.05;3.97;;;;;;;10.68;100.00;100003.56;5026523;28;20029;-65
2022/10/01 02:33:50;;;;;;;5.70;3.55;;;;;;;10.69;100.00;100002.47;5025151;28;20129;-64
2022/10/01 02:36:18;;;;;;;4.43;3.28;;;;;;;10.68;100.00;100006.31;5026017;28;20025;-64
2022/10/01 02:38:45;;;;;;;4.88;3.58;;;;;;;10.65;100.00;99993.94;5026416;28;20025;-65
2022/10/01 02:41:16;;;;;;;7.30;3.63;;;;;;;10.63;100.00;99992.50;5019373;28;20333;-64
2022/10/01 02:43:50;;;;;;;6.38;3.55;;;;;;;10.68;100.00;99986.25;5013610;28;20029;-64
2022/10/01 02:46:27;;;;;;;6.10;3.75;;;;;;;10.70;100.00;99990.44;5025850;28;20053;-65
2022/10/01 02:48:52;;;;;;;5.07;3.30;;;;;;;10.69;100.00;99985.16;5015055;28;20033;-64
2022/10/01 02:51:30;;;;;;;5.07;3.50;;;;;;;10.70;100.00;99979.44;5012721;28;20538;-64
2022/10/01 02:54:00;;;;;;;;;;;;;;;10.88;100.00;99965.41;5014851;28;20034;-65
2022/10/01 02:59:15;;;;;;;4.88;3.03;;;;;;;10.77;100.00;99988.31;4993227;28;20454;-65
2022/10/01 03:01:40;;;;;;;4.78;3.42;;;;;;;10.77;100.00;99971.03;5014307;28;20071;-65
2022/10/01 03:04:05;;;;;;;4.45;3.05;;;;;;;10.84;100.00;99975.22;5028255;28;20037;-64
2022/10/01 03:06:30;;;;;;;5.05;3.25;;;;;;;10.84;100.00;99979.91;5028092;28;20017;-64
2022/10/01 03:08:56;;;;;;;5.95;3.97;;;;;;;10.80;100.00;99956.78;5019840;28;20038;-64
2022/10/01 03:11:21;;;;;;;5.43;3.60;;;;;;;10.82;100.00;99971.09;5023583;28;20439;-64
2022/10/01 03:13:47;;;;;;;4.82;3.20;;;;;;;10.88;100.00;99961.81;5027858;28;20041;-64
2022/10/01 03:16:12;;;;;;;5.50;3.30;;;;;;;10.87;100.00;99985.72;5029059;28;20029;-64
2022/10/01 03:18:37;;;;;;;6.50;3.67;;;;;;;10.87;100.00;99987.63;5028914;28;20184;-64
2022/10/01 03:21:03;;;;;;;5.30;3.17;;;;;;;10.90;100.00;99976.97;5028047;28;20020;-65
2022/10/01 03:23:28;;;;;;;4.50;3.05;;;;;;;10.94;100.00;99968.22;5024066;28;20460;-64
2022/10/01 03:25:53;;;;;;;6.78;3.42;;;;;;;10.93;100.00;99985.78;5009576;28;20105;-64
2022/10/01 03:28:18;;;;;;;6.05;3.05;;;;;;;10.94;100.00;99981.94;5012128;28;20432;-65
2022/10/01 03:30:44;;;;;;;4.45;2.78;;;;;;;10.95;100.00;99965.22;5029978;28;20047;-64
2022/10/01 03:33:09;;;;;;;6.75;3.42;;;;;;;11.00;100.00;99961.69;5029406;28;20044;-65
2022/10/01 03:35:34;;;;;;;6.10;3.17;;;;;;;11.01;100.00;99963.38;5027309;28;20032;-64
2022/10/01 03:38:01;;;;;;;5.30;2.95;;;;;;;11.07;100.00;99971.44;5028415;28;20037;-64
2022/10/01 03:40:27;;;;;;;4.35;2.60;;;;;;;11.07;100.00;99970.59;5029600;28;20033;-64
2022/10/01 03:42:52;;;;;;;4.88;2.80;;;;;;;11.10;100.00;99965.44;5028359;28;20349;-64
2022/10/01 03:45:18;;;;;;;4.93;2.50;;;;;;;11.10;100.00;99961.81;5028710;28;20057;-65
2022/10/01 03:47:43;;;;;;;4.55;2.70;;;;;;;11.16;100.00;99969.91;5030018;28;20030;-65
2022/10/01 03:50:09;;;;;;;4.18;2.45;;;;;;;11.14;100.00;99969.31;5027110;28;20175;-64
2022/10/01 03:52:34;;;;;;;4.45;2.70;;;;;;;11.19;100.00;99971.28;5026657;28;20052;-65
2022/10/01 03:55:00;;;;;;;4.82;2.70;;;;;;;11.21;100.00;99984.78;5027956;28;20029;-64
2022/10/01 03:57:25;;;;;;;3.88;2.50;;;;;;;11.19;100.00;99982.28;5026787;28;20025;-64
2022/10/01 03:59:50;;;;;;;4.18;2.40;;;;;;;11.29;100.00;99981.56;5028373;28;20030;-64
2022/10/01 04:02:16;;;;;;;3.15;2.00;;;;;;;11.29;100.00;99979.66;5029239;28;20084;-65
2022/10/01 04:04:41;;;;;;;5.15;2.50;;;;;;;11.32;100.00;99964.59;5028354;28;20026;-65
2022/10/01 04:07:06;;;;;;;4.53;2.53;;;;;;;11.32;100.00;99972.81;5028077;28;20032;-64
2022/10/01 04:09:31;;;;;;;4.10;2.20;;;;;;;11.33;100.00;99977.22;5030838;28;20081;-64
2022/10/01 04:11:57;;;;;;;4.22;2.47;;;;;;;11.35;100.00;99981.41;5035941;28;20045;-64
2022/10/01 04:14:22;;;;;;;3.08;1.95;;;;;;;11.41;100.00;99958.38;5027697;28;20036;-64
2022/10/01 04:16:51;;;;;;;3.13;2.13;;;;;;;11.46;100.00;99992.50;5031670;28;20079;-65
2022/10/01 04:19:16;;;;;;;3.72;2.17;;;;;;;11.45;100.00;99977.91;5028269;28;20041;-65
2022/10/01 04:21:42;;;;;;;2.47;2.28;;;;;;;11.47;100.00;99983.16;5025721;28;20083;-64
2022/10/01 04:24:07;;;;;;;4.45;2.50;;;;;;;11.50;100.00;99974.38;5014030;28;20415;-65
2022/10/01 04:26:32;;;;;;;2.92;2.15;;;;;;;11.53;100.00;99985.72;5008638;28;20025;-65
2022/10/01 04:28:57;;;;;;;3.70;2.03;;;;;;;11.56;100.00;99984.38;5027309;28;20056;-65
2022/10/01 04:31:23;;;;;;;2.97;2.38;;;;;;;11.55;100.00;99986.28;5027023;28;20423;-65
2022/10/01 04:33:48;;;;;;;4.03;2.20;;;;;;;11.59;100.00;99981.09;5027490;28;20037;-66
2022/10/01 04:36:14;;;;;;;4.55;2.50;;;;;;;11.59;100.00;99992.94;5026876;28;20022;-65
2022/10/01 04:38:39;;;;;;;3.97;2.63;;;;;;;11.61;100.00;99998.19;5027103;28;20428;-64
2022/10/01 04:41:05;;;;;;;4.32;2.28;;;;;;;11.63;100.00;99998.75;5035143;28;20063;-64
2022/10/01 04:43:30;;;;;;;4.47;2.45;;;;;;;11.62;100.00;99995.16;5027174;28;20072;-65
2022/10/01 04:45:56;;;;;;;3.33;2.30;;;;;;;11.64;100.00;100011.41;5028279;28;20068;-64
2022/10/01 04:48:21;;;;;;;3.15;2.30;;;;;;;11.68;100.00;100005.13;5025405;28;20037;-65
2022/10/01 04:50:46;;;;;;;3.70;2.30;;;;;;;11.68;100.00;100004.31;5026331;28;20037;-64
2022/10/01 04:53:11;;;;;;;3.83;2.53;;;;;;;11.77;100.00;100015.69;5023692;28;20025;-65
2022/10/01 04:55:37;;;;;;;3.63;2.70;;;;;;;11.73;100.00;100014.53;5008742;28;20087;-64
2022/10/01 04:58:02;;;;;;;4.13;2.50;;;;;;;11.75;100.00;100021.41;5026413;28;20113;-64
2022/10/01 05:00:28;;;;;;;5.20;2.92;;;;;;;11.75;100.00;100021.41;5026384;28;20115;-65
2022/10/01 05:02:54;;;;;;;4.97;2.90;;;;;;;11.80;100.00;100029.72;5027816;28;20037;-64
2022/10/01 05:05:22;;;;;;;4.40;3.00;;;;;;;11.80;100.00;100021.47;5025211;28;20553;-65
2022/10/01 05:07:47;;;;;;;5.10;3.50;;;;;;;11.83;100.00;100031.19;5026950;28;20088;-65
2022/10/01 05:10:19;;;;;;;4.88;2.83;;;;;;;11.83;100.00;100032.00;5018446;28;20068;-65
2022/10/01 05:12:46;;;;;;;8.15;3.63;;;;;;;11.82;100.00;100040.53;5021487;28;20037;-64
2022/10/01 05:15:11;;;;;;;5.28;3.50;;;;;;;11.89;100.00;100038.38;5026697;28;20384;-64
2022/10/01 05:17:37;;;;;;;4.80;3.40;;;;;;;11.85;100.00;100035.31;5027092;28;20025;-64
2022/10/01 05:20:05;;;;;;;5.78;3.90;;;;;;;11.89;100.00;100050.22;5025473;28;20038;-65
2022/10/01 05:22:30;;;;;;;6.43;4.00;;;;;;;12.03;100.00;100036.88;5022839;28;20108;-64
2022/10/01 05:24:57;;;;;;;6.38;4.30;;;;;;;11.97;100.00;100042.63;5022833;28;20179;-65
2022/10/01 05:27:23;;;;;;;6.35;4.20;;;;;;;11.98;100.00;100041.50;5011793;28;20479;-65
2022/10/01 05:29:48;;;;;;;9.52;4.30;;;;;;;11.95;100.00;100051.09;5027182;28;20069;-66
2022/10/01 05:32:14;;;;;;;7.18;4.85;;;;;;;11.98;100.00;100055.28;5024597;28;20059;-64
2022/10/01 05:34:39;;;;;;;7.43;4.50;;;;;;;12.05;100.00;100055.88;5026518;28;20029;-65
2022/10/01 05:37:05;;;;;;;7.47;4.78;;;;;;;12.01;100.00;100054.75;5024836;28;20090;-64
2022/10/01 05:39:31;;;;;;;10.20;5.45;;;;;;;12.02;100.00;100061.94;5025893;28;20515;-65
2022/10/01 05:41:57;;;;;;;9.80;5.68;;;;;;;12.04;100.00;100066.06;5027006;28;20124;-64
2022/10/01 05:44:23;;;;;;;11.65;6.00;;;;;;;12.03;100.00;100067.16;5027329;28;20144;-65
2022/10/01 05:46:49;;;;;;;8.60;6.10;;;;;;;12.04;100.00;100068.81;5027408;28;20030;-66
2022/10/01 05:49:16;;;;;;;9.60;6.80;;;;;;;12.08;100.00;100080.16;5026794;28;20040;-64
2022/10/01 05:51:44;;;;;;;12.10;7.90;;;;;;;12.08;100.00;100075.47;5021645;28;20363;-65
2022/10/01 05:54:11;;;;;;;11.80;8.80;;;;;;;12.11;100.00;100091.44;5016399;28;20620;-65
2022/10/01 05:56:37;;;;;;;13.82;8.52;;;;;;;12.14;100.00;100087.38;5012987;28;20021;-65
2022/10/01 05:59:03;;;;;;;15.00;8.63;;;;;;;12.17;100.00;100086.84;5024686;28;20535;-64
2022/10/01 06:01:28;;;;;;;16.23;8.93;;;;;;;12.17;100.00;100082.19;5023941;28;20459;-65
2022/10/01 06:03:54;;;;;;;12.63;9.27;;;;;;;12.18;100.00;100089.34;5024806;28;20067;-65
2022/10/01 06:06:24;;;;;;;12.73;9.50;;;;;;;12.22;100.00;100095.16;5025639;28;20040;-66
2022/10/01 06:08:49;;;;;;;14.75;10.10;;;;;;;12.18;100.00;100091.25;5022615;28;20033;-65
2022/10/01 06:11:15;;;;;;;21.30;11.27;;;;;;;12.17;100.00;100089.59;5024299;28;20036;-64
2022/10/01 06:13:43;;;;;;;17.27;12.00;;;;;;;12.18;100.00;100100.34;5026354;28;20048;-65
2022/10/01 06:16:09;;;;;;;19.40;12.10;;;;;;;12.18;100.00;100099.53;5026788;28;20032;-64
2022/10/01 06:18:34;;;;;;;17.38;12.23;;;;;;;12.18;100.00;100102.28;5024512;28;20037;-65
2022/10/01 06:21:00;;;;;;;19.35;12.70;;;;;;;12.20;100.00;100106.41;5010778;28;20034;-65
2022/10/01 06:23:25;;;;;;;19.27;13.93;;;;;;;12.24;100.00;100108.66;5029194;28;20102;-65
2022/10/01 06:25:50;;;;;;;19.35;15.38;;;;;;;12.23;100.00;100124.34;5020092;28;20040;-65
2022/10/01 06:28:16;;;;;;;23.13;16.08;;;;;;;12.26;100.00;100118.31;5028366;28;20041;-65
2022/10/01 06:30:41;;;;;;;23.23;16.63;;;;;;;12.27;100.00;100108.97;5030310;28;20037;-64
2022/10/01 06:33:13;;;;;;;24.55;17.40;;;;;;;12.31;100.00;100114.78;5029413;28;20026;-65
2022/10/01 06:35:49;;;;;;;29.25;18.27;;;;;;;12.31;100.00;100117.53;5029264;28;20039;-64
2022/10/01 06:38:16;;;;;;;24.20;17.92;;;;;;;12.33;100.00;100116.19;5029092;28;20038;-65
2022/10/01 06:40:42;;;;;;;30.70;19.77;;;;;;;12.39;100.00;100128.91;5030314;28;20041;-65
2022/10/01 06:43:08;;;;;;;33.25;19.98;;;;;;;12.50;100.00;100116.06;5028097;28;20034;-64
2022/10/01 06:45:39;;;;;;;30.65;19.55;;;;;;;12.58;100.00;100110.09;5028822;28;20025;-65
2022/10/01 06:48:05;;;;;;;34.55;19.70;;;;;;;12.63;100.00;100123.09;5029729;28;20034;-64
2022/10/01 06:50:32;;;;;;;30.17;18.27;;;;;;;12.67;100.00;100122.31;5028651;28;20037;-65
2022/10/01 06:53:01;;;;;;;28.90;19.17;;;;;;;12.79;100.00;100127.63;5028621;28;20115;-65
2022/10/01 06:55:29;;;;;;;29.42;19.15;;;;;;;12.85;100.00;100129.31;5026304;28;20049;-65
2022/10/01 06:57:57;;;;;;;32.85;21.38;;;;;;;12.89;100.00;100133.22;5027661;28;20041;-65
2022/10/01 07:00:22;;;;;;;33.80;23.95;;;;;;;12.88;100.00;100130.75;5029050;28;20029;-65
2022/10/01 07:02:48;;;;;;;33.92;23.77;;;;;;;12.93;100.00;100137.13;5028815;28;20388;-65
2022/10/01 07:05:13;;;;;;;45.28;28.23;;;;;;;12.94;100.00;100143.47;5026313;28;20025;-65
2022/10/01 07:07:39;;;;;;;46.75;28.98;;;;;;;12.94;100.00;100136.03;5026663;28;20033;-66
2022/10/01 07:10:07;;;;;;;47.33;28.98;;;;;;;12.97;100.00;100146.50;5028790;28;20113;-65
2022/10/01 07:12:36;;;;;;;;;;;;;;;13.01;100.00;100146.81;5027054;28;20048;-65
2022/10/01 07:15:05;;;;;;;39.20;24.70;;;;;;;13.02;100.00;100162.25;5026809;28;19917;-65
2022/10/01 07:17:31;;;;;;;37.03;22.95;;;;;;;13.06;100.00;100152.38;5023557;28;20026;-65
2022/10/01 07:19:57;;;;;;;32.67;22.00;;;;;;;13.16;100.00;100157.97;5026568;28;20025;-66
2022/10/01 07:22:23;;;;;;;33.50;20.75;;;;;;;13.29;100.00;100150.38;5027512;28;20125;-65
2022/10/01 07:24:49;;;;;;;29.08;20.17;;;;;;;13.40;100.00;100150.16;5021973;28;20124;-66
2022/10/01 07:27:15;;;;;;;30.55;19.33;;;;;;;13.48;100.00;100165.34;5015106;28;20134;-65
2022/10/01 07:29:40;;;;;;;26.95;20.15;;;;;;;13.56;100.00;100172.31;5028726;28;20061;-65
2022/10/01 07:32:08;;;;;;;28.77;20.27;;;;;;;13.69;100.00;100180.13;5028639;28;20083;-65
2022/10/01 07:34:35;;;;;;;33.25;24.50;;;;;;;13.75;100.00;100168.84;5021904;28;20034;-65
2022/10/01 07:37:02;;;;;;;33.58;26.17;;;;;;;13.76;100.00;100169.66;5028905;28;20105;-65
2022/10/01 07:39:27;;;;;;;37.95;26.05;;;;;;;13.74;100.00;100174.63;5028514;28;20108;-65
2022/10/01 07:41:53;;;;;;;31.13;24.02;;;;;;;13.67;100.00;100182.31;5028614;28;20441;-64
2022/10/01 07:44:18;;;;;;;26.10;21.73;;;;;;;13.60;100.00;100181.72;5029418;28;20039;-66
2022/10/01 07:46:46;;;;;;;25.30;19.38;;;;;;;13.53;100.00;100187.47;5028993;28;20386;-65
2022/10/01 07:49:11;;;;;;;22.83;18.10;;;;;;;13.44;100.00;100195.44;5027928;28;20645;-64
2022/10/01 07:51:37;;;;;;;18.42;15.85;;;;;;;13.40;100.00;100193.47;5028747;28;20123;-65
2022/10/01 07:54:03;;;;;;;21.42;15.18;;;;;;;13.34;100.00;100198.13;5023445;28;20025;-65
2022/10/01 07:56:29;;;;;;;20.92;15.32;;;;;;;13.29;100.00;100214.63;5009156;28;20117;-65
2022/10/01 07:58:55;;;;;;;20.42;16.13;;;;;;;13.26;100.00;100208.78;5009024;28;20159;-65
2022/10/01 08:01:20;;;;;;;19.25;13.82;;;;;;;13.22;100.00;100203.78;5011438;28;20037;-65
2022/10/01 08:03:49;;;;;;;19.80;14.02;;;;;;;13.22;100.00;100208.47;5025843;28;20040;-64
2022/10/01 08:06:15;;;;;;;16.73;12.60;;;;;;;13.23;100.00;100208.25;5029107;28;20427;-65
2022/10/01 08:08:40;;;;;;;11.43;9.85;;;;;;;13.27;100.00;100218.72;5029224;28;20176;-64
2022/10/01 08:11:08;;;;;;;10.40;8.18;;;;;;;13.32;100.00;100221.53;5028306;28;20033;-64
2022/10/01 08:13:34;;;;;;;10.77;9.30;;;;;;;13.36;100.00;100230.94;5026141;28;20620;-64
2022/10/01 08:16:01;;;;;;;12.45;9.02;;;;;;;13.55;100.00;100239.63;5028686;28;20112;-65
2022/10/01 08:18:27;;;;;;;11.40;9.10;;;;;;;13.76;100.00;100233.97;5010601;28;20065;-65
2022/10/01 08:20:52;;;;;;;12.52;9.45;;;;;;;13.91;100.00;100244.28;5008218;28;20049;-65
2022/10/01 08:23:18;;;;;;;11.70;10.45;;;;;;;13.93;100.00;100255.88;5009184;28;20439;-64
2022/10/01 08:25:43;;;;;;;11.35;9.63;;;;;;;13.92;100.00;100262.50;5008957;28;20338;-65
2022/10/01 08:28:10;;;;;;;12.52;10.40;;;;;;;13.88;100.00;100266.88;5008769;28;20387;-65
2022/10/01 08:30:40;;;;;;;12.73;11.35;;;;;;;13.87;100.00;100259.69;5008353;28;20053;-65
2022/10/01 08:33:08;;;;;;;14.90;12.80;;;;;;;13.84;100.00;100264.91;5023540;28;20030;-65
2022/10/01 08:35:33;;;;;;;14.55;13.05;;;;;;;13.86;100.00;100263.56;5028210;28;20030;-64
2022/10/01 08:38:03;;;;;;;14.48;12.90;;;;;;;13.92;100.00;100264.44;5026242;28;20032;-65
2022/10/01 08:40:31;;;;;;;15.10;13.50;;;;;;;13.99;100.00;100265.88;5027207;28;20065;-65
2022/10/01 08:43:01;;;;;;;15.63;13.23;;;;;;;14.01;100.00;100274.69;5018384;28;20026;-66
2022/10/01 08:45:41;;;;;;;16.02;13.20;;;;;;;14.14;100.00;100276.16;5023241;28;20056;-65
2022/10/01 08:48:21;;;;;;;15.77;13.60;;;;;;;14.25;100.00;100268.75;5021340;28;20033;-65
2022/10/01 08:50:51;;;;;;;17.50;14.77;;;;;;;14.60;100.00;100267.25;5016887;28;20391;-65
2022/10/01 08:53:30;;;;;;;15.48;13.07;;;;;;;15.09;100.00;100259.34;5019537;28;20029;-66
2022/10/01 08:55:58;;;;;;;14.25;12.07;;;;;;;15.70;100.00;100269.59;5023208;28;20064;-66
2022/10/01 08:58:31;;;;;;;15.07;11.70;;;;;;;16.19;100.00;100266.16;5021715;28;20024;-64
2022/10/01 09:00:56;;;;;;;12.10;10.43;;;;;;;16.54;96.15;100266.03;5022497;28;20508;-66
2022/10/01 09:03:22;;;;;;;10.05;8.90;;;;;;;16.68;93.92;100265.41;5020186;28;20139;-66
2022/10/01 09:06:11;;;;;;;10.82;8.20;;;;;;;17.36;92.56;100268.31;5008242;28;20113;-66
2022/10/01 09:08:54;;;;;;;9.30;7.10;;;;;;;19.22;83.34;100275.06;5013155;28;20084;-67
2022/10/01 09:11:31;;;;;;;9.57;6.13;;;;;;;20.26;75.64;100279.38;5025793;28;20124;-66
2022/10/01 09:14:11;;;;;;;9.32;5.70;;;;;;;20.86;74.50;100274.50;5026808;28;20065;-66
2022/10/01 09:16:57;;;;;;;7.38;5.10;;;;;;;21.99;68.45;100283.75;5026164;28;20668;-67
2022/10/01 09:19:30;;;;;;;8.32;4.82;;;;;;;22.79;65.53;100295.75;5019076;28;20068;-66
2022/10/01 09:21:58;;;;;;;9.75;4.20;;;;;;;22.00;63.62;100294.63;5022101;28;20183;-66
2022/10/01 09:24:42;;;;;;;9.02;4.13;;;;;;;20.81;71.14;100307.28;5019279;28;20571;-67
2022/10/01 09:27:13;;;;;;;9.05;3.80;;;;;;;19.94;73.06;100301.44;5025425;28;20029;-67
2022/10/01 09:29:44;;;;;;;10.95;4.22;;;;;;;19.85;72.41;100302.44;5013088;28;20041;-66
2022/10/01 09:32:16;;;;;;;10.90;3.80;;;;;;;19.20;75.85;100317.13;5014158;28;20033;-65
2022/10/01 09:34:43;;;;;;;6.65;3.25;;;;;;;18.48;78.15;100314.44;5025881;28;20029;-66
2022/10/01 09:37:24;;;;;;;12.23;4.13;;;;;;;18.78;78.99;100307.69;5013269;28;20069;-66
2022/10/01 09:40:14;;;;;;;12.13;3.70;;;;;;;19.27;76.36;100305.63;5018232;28;20129;-65
2022/10/01 09:42:40;;;;;;;9.30;3.38;;;;;;;20.59;73.77;100297.69;5012566;28;20025;-66
2022/10/01 09:45:10;;;;;;;8.77;2.70;;;;;;;22.11;64.39;100284.03;5018980;28;20416;-65
2022/10/01 09:47:35;;;;;;;12.48;3.03;;;;;;;22.31;62.68;100301.38;5022747;28;20040;-66
2022/10/01 09:50:04;;;;;;;10.60;2.38;;;;;;;21.74;64.23;100302.84;5019494;28;20034;-66
2022/10/01 09:52:35;;;;;;;15.32;2.55;;;;;;;21.58;64.54;100303.56;5021402;28;20727;-65
2022/10/01 09:55:29;;;;;;;11.88;2.13;;;;;;;22.32;65.36;100301.06;5015176;28;20602;-65
2022/10/01 09:58:23;;;;;;;14.07;2.47;;;;;;;22.25;63.55;100314.66;5022774;28;20045;-66
2022/10/01 10:00:50;;;;;;;12.60;2.83;;;;;;;21.10;65.30;100307.75;5010029;28;20075;-68
2022/10/01 10:03:29;;;;;;;11.10;2.15;;;;;;;21.23;65.02;100317.19;5022698;28;20408;-66
2022/10/01 10:05:56;;;;;;;13.10;2.60;;;;;;;20.61;65.98;100314.94;5023185;28;20061;-66
2022/10/01 10:08:34;;;;;;;10.52;2.17;;;;;;;19.93;69.84;100319.28;5025158;28;20421;-66
2022/10/01 10:11:09;;;;;;;9.32;2.50;;;;;;;18.92;75.14;100341.19;5021800;28;20123;-67
2022/10/01 10:13:49;;;;;;;11.57;2.45;;;;;;;18.25;76.79;100331.94;5020320;28;20045;-65
2022/10/01 10:16:20;;;;;;;10.77;2.10;;;;;;;19.25;77.00;100347.66;5019874;28;20495;-66
2022/10/01 10:18:50;;;;;;;11.88;2.53;;;;;;;20.70;68.35;100326.22;5010525;28;20392;-67
2022/10/01 10:21:21;;;;;;;10.32;2.70;;;;;;;20.10;67.20;100348.53;5005622;28;20128;-66
2022/10/01 10:23:53;;;;;;;10.43;2.33;;;;;;;18.77;72.28;100355.28;5016540;28;20033;-66
2022/10/01 10:26:38;;;;;;;11.65;2.78;;;;;;;19.15;72.63;100364.50;5018557;28;20052;-67
2022/10/01 10:29:07;;;;;;;13.73;2.78;;;;;;;19.07;69.62;100366.03;5013679;28;20034;-66
2022/10/01 10:31:44;;;;;;;12.25;2.30;;;;;;;20.48;68.76;100368.78;5020981;28;20498;-67
2022/10/01 10:34:16;;;;;;;10.07;2.15;;;;;;;22.67;59.51;100372.00;5011694;28;20037;-66
2022/10/01 10:36:44;;;;;;;9.25;2.10;;;;;;;23.74;54.41;100376.34;5008163;28;20092;-65
2022/10/01 10:39:28;;;;;;;11.15;2.30;;;;;;;24.48;52.58;100386.47;5006011;28;20026;-67
2022/10/01 10:41:55;;;;;;;10.52;2.00;;;;;;;24.39;50.78;100392.13;5011282;28;20508;-66
2022/10/01 10:44:23;;;;;;;11.90;2.53;;;;;;;24.90;49.99;100397.88;5020191;28;20045;-67
2022/10/01 10:46:52;;;;;;;10.32;1.92;;;;;;;25.78;47.81;100397.00;5024361;28;20036;-66
2022/10/01 10:49:30;;;;;;;11.27;2.47;;;;;;;26.18;49.91;100391.63;5011085;28;20025;-66
2022/10/01 10:51:56;;;;;;;;;;;;;;;26.18;51.30;100397.28;5011251;28;20033;-67
2022/10/01 10:54:39;;;;;;;9.80;2.20;;;;;;;25.57;49.51;100399.78;5024720;28;19928;-66
2022/10/01 10:57:23;;;;;;;12.75;2.22;;;;;;;25.50;49.98;100408.78;5021294;28;20025;-66
2022/10/01 11:00:05;;;;;;;11.93;2.20;;;;;;;23.78;51.24;100422.22;5022226;28;20296;-67
2022/10/01 11:02:32;;;;;;;13.52;2.72;;;;;;;21.78;56.74;100423.22;5013523;28;20128;-66
2022/10/01 11:05:04;;;;;;;12.85;2.38;;;;;;;20.59;61.98;100425.22;5003653;28;20378;-66
2022/10/01 11:07:30;;;;;;;10.07;2.78;;;;;;;19.58;62.46;100428.53;4990886;28;20038;-66
2022/10/01 11:10:14;;;;;;;10.02;2.25;;;;;;;18.59;65.02;100440.28;5008158;28;20034;-66
2022/10/01 11:13:05;;;;;;;10.10;2.00;;;;;;;18.11;68.76;100440.22;5008898;28;20053;-66
2022/10/01 11:15:40;;;;;;;9.38;2.35;;;;;;;17.84;70.50;100446.22;5008333;28;20452;-66
2022/10/01 11:18:27;;;;;;;10.88;2.45;;;;;;;17.60;71.12;100441.38;5008348;28;20080;-66
2022/10/01 11:20:59;;;;;;;10.88;2.67;;;;;;;17.21;72.65;100443.25;5007102;28;20053;-66
2022/10/01 11:23:36;;;;;;;14.65;2.83;;;;;;;16.95;73.10;100451.69;5009322;28;20037;-66
2022/10/01 11:26:32;;;;;;;9.38;2.13;;;;;;;17.14;73.44;100439.97;5008131;28;20120;-66
2022/10/01 11:29:16;;;;;;;9.38;2.10;;;;;;;17.58;70.90;100449.16;5008768;28;20048;-66
2022/10/01 11:32:13;;;;;;;10.32;2.13;;;;;;;17.45;72.55;100462.84;5008052;28;20038;-65